sensor_id;sensor_type;location;lat;lon;timestamp;P1;durP1;ratioP1;P2;durP2;ratioP2
1779;SDS011;10019;46.670;14.260;2023-02-28T00:01:39;8.17;;;6.67;;
1779;SDS011;10019;46.670;14.260;2023-02-28T00:04:11;11.13;;;7.83;;
1779;SDS011;10019;46.670;14.260;2023-02-28T00:06:44;9.80;;;6.90;;
1779;SDS011;10019;46.670;14.260;2023-02-28T00:09:16;10.03;;;8.17;;
1779;SDS011;10019;46.670;14.260;2023-02-28T00:11:47;10.70;;;7.80;;
1779;SDS011;10019;46.670;14.260;2023-02-28T00:14:19;9.97;;;8.60;;
1779;SDS011;10019;46.670;14.260;2023-02-28T00:16:50;12.03;;;8.37;;
1779;SDS011;10019;46.670;14.260;2023-02-28T00:19:22;12.73;;;8.37;;
1779;SDS011;10019;46.670;14.260;2023-02-28T00:21:55;11.83;;;8.40;;
1779;SDS011;10019;46.670;14.260;2023-02-28T00:24:27;11.10;;;7.73;;
1779;SDS011;10019;46.670;14.260;2023-02-28T00:26:58;12.90;;;8.53;;
1779;SDS011;10019;46.670;14.260;2023-02-28T00:29:30;13.93;;;8.83;;
1779;SDS011;10019;46.670;14.260;2023-02-28T00:32:02;11.40;;;7.00;;
1779;SDS011;10019;46.670;14.260;2023-02-28T00:34:34;10.70;;;7.90;;
1779;SDS011;10019;46.670;14.260;2023-02-28T00:37:09;10.53;;;8.20;;
1779;SDS011;10019;46.670;14.260;2023-02-28T00:39:42;10.87;;;7.77;;
1779;SDS011;10019;46.670;14.260;2023-02-28T00:42:13;9.80;;;7.23;;
1779;SDS011;10019;46.670;14.260;2023-02-28T00:44:45;9.47;;;6.77;;
1779;SDS011;10019;46.670;14.260;2023-02-28T00:47:17;12.37;;;8.00;;
1779;SDS011;10019;46.670;14.260;2023-02-28T00:49:48;13.00;;;8.93;;
1779;SDS011;10019;46.670;14.260;2023-02-28T00:52:21;12.00;;;8.53;;
1779;SDS011;10019;46.670;14.260;2023-02-28T00:54:53;9.77;;;7.30;;
1779;SDS011;10019;46.670;14.260;2023-02-28T00:57:25;12.97;;;7.53;;
1779;SDS011;10019;46.670;14.260;2023-02-28T00:59:56;11.37;;;7.40;;
1779;SDS011;10019;46.670;14.260;2023-02-28T01:02:28;9.57;;;7.33;;
1779;SDS011;10019;46.670;14.260;2023-02-28T01:05:00;10.80;;;7.30;;
1779;SDS011;10019;46.670;14.260;2023-02-28T01:07:33;9.60;;;7.60;;
1779;SDS011;10019;46.670;14.260;2023-02-28T01:10:05;10.50;;;7.23;;
1779;SDS011;10019;46.670;14.260;2023-02-28T01:12:37;11.23;;;7.30;;
1779;SDS011;10019;46.670;14.260;2023-02-28T01:15:09;10.30;;;6.67;;
1779;SDS011;10019;46.670;14.260;2023-02-28T01:17:41;12.20;;;7.50;;
1779;SDS011;10019;46.670;14.260;2023-02-28T01:20:13;9.40;;;7.50;;
1779;SDS011;10019;46.670;14.260;2023-02-28T01:22:46;10.20;;;6.93;;
1779;SDS011;10019;46.670;14.260;2023-02-28T01:25:18;9.60;;;7.77;;
1779;SDS011;10019;46.670;14.260;2023-02-28T01:27:50;9.33;;;7.50;;
1779;SDS011;10019;46.670;14.260;2023-02-28T01:30:22;12.93;;;7.13;;
1779;SDS011;10019;46.670;14.260;2023-02-28T01:32:53;11.53;;;7.90;;
1779;SDS011;10019;46.670;14.260;2023-02-28T01:35:25;9.40;;;8.10;;
1779;SDS011;10019;46.670;14.260;2023-02-28T01:37:58;9.73;;;7.53;;
1779;SDS011;10019;46.670;14.260;2023-02-28T01:40:30;8.50;;;7.00;;
1779;SDS011;10019;46.670;14.260;2023-02-28T01:43:02;9.97;;;7.97;;
1779;SDS011;10019;46.670;14.260;2023-02-28T01:45:33;10.83;;;7.50;;
1779;SDS011;10019;46.670;14.260;2023-02-28T01:48:06;12.80;;;6.83;;
1779;SDS011;10019;46.670;14.260;2023-02-28T01:50:39;11.07;;;7.23;;
1779;SDS011;10019;46.670;14.260;2023-02-28T01:53:15;9.37;;;8.27;;
1779;SDS011;10019;46.670;14.260;2023-02-28T01:55:48;8.70;;;7.20;;
1779;SDS011;10019;46.670;14.260;2023-02-28T01:58:21;12.60;;;8.27;;
1779;SDS011;10019;46.670;14.260;2023-02-28T02:00:53;11.10;;;8.07;;
1779;SDS011;10019;46.670;14.260;2023-02-28T02:03:25;9.63;;;7.60;;
1779;SDS011;10019;46.670;14.260;2023-02-28T02:05:56;12.90;;;8.10;;
1779;SDS011;10019;46.670;14.260;2023-02-28T02:08:30;12.20;;;7.63;;
1779;SDS011;10019;46.670;14.260;2023-02-28T02:11:01;9.77;;;7.23;;
1779;SDS011;10019;46.670;14.260;2023-02-28T02:13:47;13.40;;;8.33;;
1779;SDS011;10019;46.670;14.260;2023-02-28T02:16:33;10.17;;;7.40;;
1779;SDS011;10019;46.670;14.260;2023-02-28T02:19:14;9.50;;;7.20;;
1779;SDS011;10019;46.670;14.260;2023-02-28T02:25:15;10.17;;;7.00;;
1779;SDS011;10019;46.670;14.260;2023-02-28T02:34:06;10.50;;;7.60;;
1779;SDS011;10019;46.670;14.260;2023-02-28T02:36:57;10.40;;;7.40;;
1779;SDS011;10019;46.670;14.260;2023-02-28T02:39:35;12.50;;;7.73;;
1779;SDS011;10019;46.670;14.260;2023-02-28T02:42:12;7.83;;;7.00;;
1779;SDS011;10019;46.670;14.260;2023-02-28T02:44:47;9.70;;;7.27;;
1779;SDS011;10019;46.670;14.260;2023-02-28T02:47:24;9.27;;;7.23;;
1779;SDS011;10019;46.670;14.260;2023-02-28T02:49:59;9.63;;;7.60;;
1779;SDS011;10019;46.670;14.260;2023-02-28T02:52:36;12.60;;;7.13;;
1779;SDS011;10019;46.670;14.260;2023-02-28T02:55:10;9.83;;;6.60;;
1779;SDS011;10019;46.670;14.260;2023-02-28T02:57:44;12.43;;;7.67;;
1779;SDS011;10019;46.670;14.260;2023-02-28T03:00:18;11.80;;;7.87;;
1779;SDS011;10019;46.670;14.260;2023-02-28T03:02:52;16.70;;;6.97;;
1779;SDS011;10019;46.670;14.260;2023-02-28T03:05:27;8.37;;;6.90;;
1779;SDS011;10019;46.670;14.260;2023-02-28T03:08:02;10.07;;;7.50;;
1779;SDS011;10019;46.670;14.260;2023-02-28T03:10:36;11.80;;;7.93;;
1779;SDS011;10019;46.670;14.260;2023-02-28T03:13:23;10.17;;;7.57;;
1779;SDS011;10019;46.670;14.260;2023-02-28T03:16:15;8.27;;;6.23;;
1779;SDS011;10019;46.670;14.260;2023-02-28T03:18:57;9.03;;;7.37;;
1779;SDS011;10019;46.670;14.260;2023-02-28T03:21:37;9.47;;;6.63;;
1779;SDS011;10019;46.670;14.260;2023-02-28T03:24:14;9.40;;;6.37;;
1779;SDS011;10019;46.670;14.260;2023-02-28T03:26:50;11.37;;;7.40;;
1779;SDS011;10019;46.670;14.260;2023-02-28T03:29:26;10.07;;;7.43;;
1779;SDS011;10019;46.670;14.260;2023-02-28T03:32:02;10.20;;;8.37;;
1779;SDS011;10019;46.670;14.260;2023-02-28T03:34:36;11.13;;;8.00;;
1779;SDS011;10019;46.670;14.260;2023-02-28T03:37:11;10.60;;;7.57;;
1779;SDS011;10019;46.670;14.260;2023-02-28T03:39:46;9.43;;;7.60;;
1779;SDS011;10019;46.670;14.260;2023-02-28T03:42:20;10.97;;;7.70;;
1779;SDS011;10019;46.670;14.260;2023-02-28T03:44:55;9.90;;;7.77;;
1779;SDS011;10019;46.670;14.260;2023-02-28T03:47:30;12.23;;;7.90;;
1779;SDS011;10019;46.670;14.260;2023-02-28T03:50:05;11.67;;;7.73;;
1779;SDS011;10019;46.670;14.260;2023-02-28T03:52:42;9.23;;;8.03;;
1779;SDS011;10019;46.670;14.260;2023-02-28T03:55:16;8.27;;;6.83;;
1779;SDS011;10019;46.670;14.260;2023-02-28T03:57:53;7.77;;;6.80;;
1779;SDS011;10019;46.670;14.260;2023-02-28T04:00:30;10.03;;;7.50;;
1779;SDS011;10019;46.670;14.260;2023-02-28T04:03:03;8.67;;;7.20;;
1779;SDS011;10019;46.670;14.260;2023-02-28T04:05:43;9.10;;;7.20;;
1779;SDS011;10019;46.670;14.260;2023-02-28T04:08:19;15.07;;;9.07;;
1779;SDS011;10019;46.670;14.260;2023-02-28T04:10:55;8.73;;;6.50;;
1779;SDS011;10019;46.670;14.260;2023-02-28T04:13:29;12.13;;;7.87;;
1779;SDS011;10019;46.670;14.260;2023-02-28T04:16:00;8.10;;;6.87;;
1779;SDS011;10019;46.670;14.260;2023-02-28T04:18:32;11.50;;;7.97;;
1779;SDS011;10019;46.670;14.260;2023-02-28T04:21:04;9.27;;;7.50;;
1779;SDS011;10019;46.670;14.260;2023-02-28T04:23:37;10.40;;;7.53;;
1779;SDS011;10019;46.670;14.260;2023-02-28T04:26:09;11.70;;;7.37;;
1779;SDS011;10019;46.670;14.260;2023-02-28T04:28:41;12.37;;;7.33;;
1779;SDS011;10019;46.670;14.260;2023-02-28T04:31:12;9.50;;;7.17;;
1779;SDS011;10019;46.670;14.260;2023-02-28T04:33:44;11.50;;;7.00;;
1779;SDS011;10019;46.670;14.260;2023-02-28T04:36:16;9.30;;;6.60;;
1779;SDS011;10019;46.670;14.260;2023-02-28T04:38:50;9.90;;;7.10;;
1779;SDS011;10019;46.670;14.260;2023-02-28T04:41:22;13.20;;;7.10;;
1779;SDS011;10019;46.670;14.260;2023-02-28T04:43:54;10.37;;;7.77;;
1779;SDS011;10019;46.670;14.260;2023-02-28T04:46:27;10.33;;;7.20;;
1779;SDS011;10019;46.670;14.260;2023-02-28T04:49:00;10.20;;;7.43;;
1779;SDS011;10019;46.670;14.260;2023-02-28T04:51:35;11.53;;;7.00;;
1779;SDS011;10019;46.670;14.260;2023-02-28T04:54:08;10.90;;;7.07;;
1779;SDS011;10019;46.670;14.260;2023-02-28T04:56:40;10.17;;;6.80;;
1779;SDS011;10019;46.670;14.260;2023-02-28T04:59:11;9.47;;;7.23;;
1779;SDS011;10019;46.670;14.260;2023-02-28T05:01:45;9.43;;;6.80;;
1779;SDS011;10019;46.670;14.260;2023-02-28T05:04:17;12.10;;;7.73;;
1779;SDS011;10019;46.670;14.260;2023-02-28T05:06:49;9.70;;;7.20;;
1779;SDS011;10019;46.670;14.260;2023-02-28T05:09:22;10.53;;;7.97;;
1779;SDS011;10019;46.670;14.260;2023-02-28T05:11:53;11.37;;;7.97;;
1779;SDS011;10019;46.670;14.260;2023-02-28T05:14:25;10.30;;;7.13;;
1779;SDS011;10019;46.670;14.260;2023-02-28T05:16:57;11.83;;;8.30;;
1779;SDS011;10019;46.670;14.260;2023-02-28T05:19:28;14.83;;;8.70;;
1779;SDS011;10019;46.670;14.260;2023-02-28T05:22:00;11.00;;;6.83;;
1779;SDS011;10019;46.670;14.260;2023-02-28T05:24:34;11.07;;;7.20;;
1779;SDS011;10019;46.670;14.260;2023-02-28T05:27:05;8.70;;;6.87;;
1779;SDS011;10019;46.670;14.260;2023-02-28T05:29:37;10.40;;;7.37;;
1779;SDS011;10019;46.670;14.260;2023-02-28T05:32:12;13.50;;;8.67;;
1779;SDS011;10019;46.670;14.260;2023-02-28T05:34:44;10.27;;;7.90;;
1779;SDS011;10019;46.670;14.260;2023-02-28T05:37:16;14.63;;;8.53;;
1779;SDS011;10019;46.670;14.260;2023-02-28T05:39:49;13.00;;;9.13;;
1779;SDS011;10019;46.670;14.260;2023-02-28T05:42:21;13.70;;;8.50;;
1779;SDS011;10019;46.670;14.260;2023-02-28T05:44:52;16.87;;;9.07;;
1779;SDS011;10019;46.670;14.260;2023-02-28T05:47:24;11.73;;;8.27;;
1779;SDS011;10019;46.670;14.260;2023-02-28T05:49:56;11.67;;;8.10;;
1779;SDS011;10019;46.670;14.260;2023-02-28T05:52:28;10.20;;;7.30;;
1779;SDS011;10019;46.670;14.260;2023-02-28T05:55:01;11.50;;;8.13;;
1779;SDS011;10019;46.670;14.260;2023-02-28T05:57:33;16.63;;;7.97;;
1779;SDS011;10019;46.670;14.260;2023-02-28T06:00:05;10.27;;;7.83;;
1779;SDS011;10019;46.670;14.260;2023-02-28T06:02:38;13.57;;;8.70;;
1779;SDS011;10019;46.670;14.260;2023-02-28T06:05:11;10.70;;;7.33;;
1779;SDS011;10019;46.670;14.260;2023-02-28T06:07:45;10.80;;;7.70;;
1779;SDS011;10019;46.670;14.260;2023-02-28T06:10:18;8.40;;;7.40;;
1779;SDS011;10019;46.670;14.260;2023-02-28T06:12:50;8.13;;;7.23;;
1779;SDS011;10019;46.670;14.260;2023-02-28T06:15:21;13.00;;;7.50;;
1779;SDS011;10019;46.670;14.260;2023-02-28T06:17:53;14.27;;;7.17;;
1779;SDS011;10019;46.670;14.260;2023-02-28T06:20:26;9.00;;;7.00;;
1779;SDS011;10019;46.670;14.260;2023-02-28T06:22:59;14.00;;;7.23;;
1779;SDS011;10019;46.670;14.260;2023-02-28T06:25:32;11.73;;;8.67;;
1779;SDS011;10019;46.670;14.260;2023-02-28T06:28:04;9.77;;;7.77;;
1779;SDS011;10019;46.670;14.260;2023-02-28T06:30:36;11.47;;;7.67;;
1779;SDS011;10019;46.670;14.260;2023-02-28T06:33:08;11.97;;;7.23;;
1779;SDS011;10019;46.670;14.260;2023-02-28T06:35:39;11.03;;;7.70;;
1779;SDS011;10019;46.670;14.260;2023-02-28T06:38:14;10.20;;;7.83;;
1779;SDS011;10019;46.670;14.260;2023-02-28T06:40:53;11.63;;;8.23;;
1779;SDS011;10019;46.670;14.260;2023-02-28T06:43:27;10.77;;;8.53;;
1779;SDS011;10019;46.670;14.260;2023-02-28T06:45:59;13.03;;;7.30;;
1779;SDS011;10019;46.670;14.260;2023-02-28T06:48:32;10.93;;;7.97;;
1779;SDS011;10019;46.670;14.260;2023-02-28T06:51:04;16.03;;;7.70;;
1779;SDS011;10019;46.670;14.260;2023-02-28T06:53:37;10.30;;;9.00;;
1779;SDS011;10019;46.670;14.260;2023-02-28T06:56:11;11.87;;;7.30;;
1779;SDS011;10019;46.670;14.260;2023-02-28T06:58:45;11.37;;;8.33;;
1779;SDS011;10019;46.670;14.260;2023-02-28T07:01:18;9.43;;;7.93;;
1779;SDS011;10019;46.670;14.260;2023-02-28T07:03:50;11.70;;;8.60;;
1779;SDS011;10019;46.670;14.260;2023-02-28T07:06:22;15.60;;;9.77;;
1779;SDS011;10019;46.670;14.260;2023-02-28T07:08:55;11.63;;;8.37;;
1779;SDS011;10019;46.670;14.260;2023-02-28T07:11:29;10.90;;;8.60;;
1779;SDS011;10019;46.670;14.260;2023-02-28T07:14:01;12.87;;;8.53;;
1779;SDS011;10019;46.670;14.260;2023-02-28T07:16:33;16.53;;;9.53;;
1779;SDS011;10019;46.670;14.260;2023-02-28T07:19:05;12.33;;;9.53;;
1779;SDS011;10019;46.670;14.260;2023-02-28T07:21:36;10.70;;;8.83;;
1779;SDS011;10019;46.670;14.260;2023-02-28T07:24:08;13.10;;;9.40;;
1779;SDS011;10019;46.670;14.260;2023-02-28T07:26:41;10.70;;;8.60;;
1779;SDS011;10019;46.670;14.260;2023-02-28T07:29:13;11.20;;;9.27;;
1779;SDS011;10019;46.670;14.260;2023-02-28T07:31:45;14.23;;;8.10;;
1779;SDS011;10019;46.670;14.260;2023-02-28T07:34:17;11.07;;;8.20;;
1779;SDS011;10019;46.670;14.260;2023-02-28T07:36:48;12.80;;;9.00;;
1779;SDS011;10019;46.670;14.260;2023-02-28T07:39:23;13.87;;;8.33;;
1779;SDS011;10019;46.670;14.260;2023-02-28T07:41:56;11.07;;;7.77;;
1779;SDS011;10019;46.670;14.260;2023-02-28T07:44:29;9.50;;;7.00;;
1779;SDS011;10019;46.670;14.260;2023-02-28T07:47:01;12.10;;;8.17;;
1779;SDS011;10019;46.670;14.260;2023-02-28T07:49:33;10.90;;;7.73;;
1779;SDS011;10019;46.670;14.260;2023-02-28T07:52:05;9.37;;;7.50;;
1779;SDS011;10019;46.670;14.260;2023-02-28T07:54:37;9.93;;;8.40;;
1779;SDS011;10019;46.670;14.260;2023-02-28T07:57:10;10.77;;;7.73;;
1779;SDS011;10019;46.670;14.260;2023-02-28T07:59:42;11.70;;;8.10;;
1779;SDS011;10019;46.670;14.260;2023-02-28T08:02:14;11.03;;;7.80;;
1779;SDS011;10019;46.670;14.260;2023-02-28T08:04:46;9.43;;;7.60;;
1779;SDS011;10019;46.670;14.260;2023-02-28T08:07:18;13.80;;;8.67;;
1779;SDS011;10019;46.670;14.260;2023-02-28T08:09:49;13.53;;;8.80;;
1779;SDS011;10019;46.670;14.260;2023-02-28T08:12:23;11.50;;;8.20;;
1779;SDS011;10019;46.670;14.260;2023-02-28T08:14:54;12.63;;;8.50;;
1779;SDS011;10019;46.670;14.260;2023-02-28T08:17:26;10.93;;;7.93;;
1779;SDS011;10019;46.670;14.260;2023-02-28T08:19:58;12.73;;;8.30;;
1779;SDS011;10019;46.670;14.260;2023-02-28T08:22:29;14.83;;;8.40;;
1779;SDS011;10019;46.670;14.260;2023-02-28T08:25:01;14.03;;;8.47;;
1779;SDS011;10019;46.670;14.260;2023-02-28T08:27:34;11.23;;;8.10;;
1779;SDS011;10019;46.670;14.260;2023-02-28T08:30:06;14.13;;;8.50;;
1779;SDS011;10019;46.670;14.260;2023-02-28T08:32:40;10.10;;;7.73;;
1779;SDS011;10019;46.670;14.260;2023-02-28T08:35:12;9.77;;;7.10;;
1779;SDS011;10019;46.670;14.260;2023-02-28T08:37:43;11.43;;;7.27;;
1779;SDS011;10019;46.670;14.260;2023-02-28T08:40:15;11.57;;;7.20;;
1779;SDS011;10019;46.670;14.260;2023-02-28T08:42:49;13.63;;;8.83;;
1779;SDS011;10019;46.670;14.260;2023-02-28T08:45:21;10.40;;;7.67;;
1779;SDS011;10019;46.670;14.260;2023-02-28T08:47:53;11.43;;;7.67;;
1779;SDS011;10019;46.670;14.260;2023-02-28T08:50:25;11.70;;;7.47;;
1779;SDS011;10019;46.670;14.260;2023-02-28T08:52:57;10.77;;;7.63;;
1779;SDS011;10019;46.670;14.260;2023-02-28T08:55:29;14.20;;;7.73;;
1779;SDS011;10019;46.670;14.260;2023-02-28T08:58:02;9.80;;;7.90;;
1779;SDS011;10019;46.670;14.260;2023-02-28T09:00:34;15.10;;;8.90;;
1779;SDS011;10019;46.670;14.260;2023-02-28T09:03:06;13.00;;;7.73;;
1779;SDS011;10019;46.670;14.260;2023-02-28T09:05:38;12.40;;;8.33;;
1779;SDS011;10019;46.670;14.260;2023-02-28T09:08:10;8.90;;;6.87;;
1779;SDS011;10019;46.670;14.260;2023-02-28T09:10:42;10.70;;;8.40;;
1779;SDS011;10019;46.670;14.260;2023-02-28T09:13:15;11.20;;;7.50;;
1779;SDS011;10019;46.670;14.260;2023-02-28T09:15:47;9.13;;;7.13;;
1779;SDS011;10019;46.670;14.260;2023-02-28T09:18:19;11.17;;;8.40;;
1779;SDS011;10019;46.670;14.260;2023-02-28T09:20:51;11.70;;;8.50;;
1779;SDS011;10019;46.670;14.260;2023-02-28T09:23:23;9.30;;;8.37;;
1779;SDS011;10019;46.670;14.260;2023-02-28T09:25:55;11.77;;;8.70;;
1779;SDS011;10019;46.670;14.260;2023-02-28T09:28:29;10.03;;;8.03;;
1779;SDS011;10019;46.670;14.260;2023-02-28T09:31:00;10.83;;;7.60;;
1779;SDS011;10019;46.670;14.260;2023-02-28T09:33:34;13.10;;;8.77;;
1779;SDS011;10019;46.670;14.260;2023-02-28T09:36:06;12.17;;;8.10;;
1779;SDS011;10019;46.670;14.260;2023-02-28T09:38:38;12.83;;;8.43;;
1779;SDS011;10019;46.670;14.260;2023-02-28T09:41:12;12.13;;;8.63;;
1779;SDS011;10019;46.670;14.260;2023-02-28T09:43:47;12.13;;;8.30;;
1779;SDS011;10019;46.670;14.260;2023-02-28T09:46:26;10.07;;;7.97;;
1779;SDS011;10019;46.670;14.260;2023-02-28T09:48:59;12.17;;;8.93;;
1779;SDS011;10019;46.670;14.260;2023-02-28T09:51:37;19.20;;;11.80;;
1779;SDS011;10019;46.670;14.260;2023-02-28T09:54:16;13.43;;;9.13;;
1779;SDS011;10019;46.670;14.260;2023-02-28T09:56:50;16.10;;;9.60;;
1779;SDS011;10019;46.670;14.260;2023-02-28T09:59:28;13.10;;;9.67;;
1779;SDS011;10019;46.670;14.260;2023-02-28T10:02:04;12.37;;;9.30;;
1779;SDS011;10019;46.670;14.260;2023-02-28T10:04:43;13.43;;;8.30;;
1779;SDS011;10019;46.670;14.260;2023-02-28T10:07:24;12.10;;;8.83;;
1779;SDS011;10019;46.670;14.260;2023-02-28T10:10:06;11.87;;;7.50;;
1779;SDS011;10019;46.670;14.260;2023-02-28T10:12:46;14.40;;;9.30;;
1779;SDS011;10019;46.670;14.260;2023-02-28T10:15:20;11.33;;;7.73;;
1779;SDS011;10019;46.670;14.260;2023-02-28T10:17:53;12.03;;;8.67;;
1779;SDS011;10019;46.670;14.260;2023-02-28T10:20:27;13.43;;;9.20;;
1779;SDS011;10019;46.670;14.260;2023-02-28T10:23:02;13.47;;;10.20;;
1779;SDS011;10019;46.670;14.260;2023-02-28T10:25:38;13.80;;;9.13;;
1779;SDS011;10019;46.670;14.260;2023-02-28T10:28:10;13.73;;;9.10;;
1779;SDS011;10019;46.670;14.260;2023-02-28T10:30:46;14.67;;;8.30;;
1779;SDS011;10019;46.670;14.260;2023-02-28T10:33:22;14.67;;;9.03;;
1779;SDS011;10019;46.670;14.260;2023-02-28T10:35:54;11.10;;;9.07;;
1779;SDS011;10019;46.670;14.260;2023-02-28T10:38:27;13.47;;;9.27;;
1779;SDS011;10019;46.670;14.260;2023-02-28T10:41:04;13.90;;;8.50;;
1779;SDS011;10019;46.670;14.260;2023-02-28T10:43:37;11.80;;;8.03;;
1779;SDS011;10019;46.670;14.260;2023-02-28T10:46:12;9.73;;;7.73;;
1779;SDS011;10019;46.670;14.260;2023-02-28T10:48:45;16.30;;;8.53;;
1779;SDS011;10019;46.670;14.260;2023-02-28T10:51:21;11.90;;;8.23;;
1779;SDS011;10019;46.670;14.260;2023-02-28T10:53:54;12.13;;;8.00;;
1779;SDS011;10019;46.670;14.260;2023-02-28T10:56:27;13.83;;;8.77;;
1779;SDS011;10019;46.670;14.260;2023-02-28T10:58:59;9.77;;;8.10;;
1779;SDS011;10019;46.670;14.260;2023-02-28T11:01:37;17.00;;;10.03;;
1779;SDS011;10019;46.670;14.260;2023-02-28T11:04:17;13.03;;;8.57;;
1779;SDS011;10019;46.670;14.260;2023-02-28T11:06:56;14.93;;;9.47;;
1779;SDS011;10019;46.670;14.260;2023-02-28T11:09:31;15.60;;;8.73;;
1779;SDS011;10019;46.670;14.260;2023-02-28T11:12:05;11.60;;;8.80;;
1779;SDS011;10019;46.670;14.260;2023-02-28T11:14:40;10.70;;;8.00;;
1779;SDS011;10019;46.670;14.260;2023-02-28T11:17:21;13.40;;;10.00;;
1779;SDS011;10019;46.670;14.260;2023-02-28T11:19:54;12.17;;;10.00;;
1779;SDS011;10019;46.670;14.260;2023-02-28T11:22:28;15.03;;;10.33;;
1779;SDS011;10019;46.670;14.260;2023-02-28T11:25:02;13.73;;;10.30;;
1779;SDS011;10019;46.670;14.260;2023-02-28T11:27:48;13.77;;;9.40;;
1779;SDS011;10019;46.670;14.260;2023-02-28T11:30:24;14.47;;;9.10;;
1779;SDS011;10019;46.670;14.260;2023-02-28T11:32:59;12.40;;;7.97;;
1779;SDS011;10019;46.670;14.260;2023-02-28T11:35:31;11.00;;;8.67;;
1779;SDS011;10019;46.670;14.260;2023-02-28T11:38:07;13.83;;;9.67;;
1779;SDS011;10019;46.670;14.260;2023-02-28T11:40:42;14.23;;;10.10;;
1779;SDS011;10019;46.670;14.260;2023-02-28T11:43:21;14.17;;;9.53;;
1779;SDS011;10019;46.670;14.260;2023-02-28T11:46:05;12.13;;;9.20;;
1779;SDS011;10019;46.670;14.260;2023-02-28T11:48:45;16.43;;;10.43;;
1779;SDS011;10019;46.670;14.260;2023-02-28T11:51:21;20.33;;;12.93;;
1779;SDS011;10019;46.670;14.260;2023-02-28T11:53:59;18.33;;;12.47;;
1779;SDS011;10019;46.670;14.260;2023-02-28T11:56:39;17.47;;;10.47;;
1779;SDS011;10019;46.670;14.260;2023-02-28T11:59:27;12.23;;;8.80;;
1779;SDS011;10019;46.670;14.260;2023-02-28T12:05:18;16.63;;;9.73;;
1779;SDS011;10019;46.670;14.260;2023-02-28T12:07:59;14.47;;;10.47;;
1779;SDS011;10019;46.670;14.260;2023-02-28T12:10:35;12.70;;;9.07;;
1779;SDS011;10019;46.670;14.260;2023-02-28T12:13:12;13.93;;;9.03;;
1779;SDS011;10019;46.670;14.260;2023-02-28T12:15:55;14.03;;;9.13;;
1779;SDS011;10019;46.670;14.260;2023-02-28T12:18:53;15.13;;;10.17;;
1779;SDS011;10019;46.670;14.260;2023-02-28T12:21:35;13.60;;;9.83;;
1779;SDS011;10019;46.670;14.260;2023-02-28T12:24:21;13.30;;;9.17;;
1779;SDS011;10019;46.670;14.260;2023-02-28T12:27:00;13.77;;;9.67;;
1779;SDS011;10019;46.670;14.260;2023-02-28T12:29:36;12.17;;;8.73;;
1779;SDS011;10019;46.670;14.260;2023-02-28T12:32:13;14.03;;;9.27;;
1779;SDS011;10019;46.670;14.260;2023-02-28T12:34:47;13.33;;;10.00;;
1779;SDS011;10019;46.670;14.260;2023-02-28T12:37:24;14.43;;;9.33;;
1779;SDS011;10019;46.670;14.260;2023-02-28T12:40:00;16.27;;;9.40;;
1779;SDS011;10019;46.670;14.260;2023-02-28T12:42:36;14.60;;;10.13;;
1779;SDS011;10019;46.670;14.260;2023-02-28T12:45:12;12.50;;;8.83;;
1779;SDS011;10019;46.670;14.260;2023-02-28T12:47:48;14.90;;;9.53;;
1779;SDS011;10019;46.670;14.260;2023-02-28T12:50:21;12.50;;;8.73;;
1779;SDS011;10019;46.670;14.260;2023-02-28T12:52:55;13.93;;;8.57;;
1779;SDS011;10019;46.670;14.260;2023-02-28T12:55:32;16.50;;;9.83;;
1779;SDS011;10019;46.670;14.260;2023-02-28T12:58:08;17.07;;;9.90;;
1779;SDS011;10019;46.670;14.260;2023-02-28T13:00:48;16.60;;;10.13;;
1779;SDS011;10019;46.670;14.260;2023-02-28T13:03:44;13.27;;;9.13;;
1779;SDS011;10019;46.670;14.260;2023-02-28T13:06:28;14.07;;;8.93;;
1779;SDS011;10019;46.670;14.260;2023-02-28T13:09:15;12.83;;;9.43;;
1779;SDS011;10019;46.670;14.260;2023-02-28T13:11:47;16.93;;;10.57;;
1779;SDS011;10019;46.670;14.260;2023-02-28T13:14:25;13.57;;;9.07;;
1779;SDS011;10019;46.670;14.260;2023-02-28T13:16:59;14.90;;;10.30;;
1779;SDS011;10019;46.670;14.260;2023-02-28T13:19:34;14.30;;;9.10;;
1779;SDS011;10019;46.670;14.260;2023-02-28T13:22:15;14.23;;;9.03;;
1779;SDS011;10019;46.670;14.260;2023-02-28T13:24:50;11.60;;;8.10;;
1779;SDS011;10019;46.670;14.260;2023-02-28T13:27:24;15.80;;;9.60;;
1779;SDS011;10019;46.670;14.260;2023-02-28T13:33:17;13.47;;;8.77;;
1779;SDS011;10019;46.670;14.260;2023-02-28T13:38:59;15.60;;;10.30;;
1779;SDS011;10019;46.670;14.260;2023-02-28T13:41:45;15.50;;;9.00;;
1779;SDS011;10019;46.670;14.260;2023-02-28T13:44:18;16.20;;;9.57;;
1779;SDS011;10019;46.670;14.260;2023-02-28T13:50:15;14.57;;;10.00;;
1779;SDS011;10019;46.670;14.260;2023-02-28T13:52:57;12.97;;;7.73;;
1779;SDS011;10019;46.670;14.260;2023-02-28T13:55:41;14.67;;;8.80;;
1779;SDS011;10019;46.670;14.260;2023-02-28T13:58:21;14.87;;;8.63;;
1779;SDS011;10019;46.670;14.260;2023-02-28T14:01:02;18.00;;;10.40;;
1779;SDS011;10019;46.670;14.260;2023-02-28T14:03:53;14.20;;;8.67;;
1779;SDS011;10019;46.670;14.260;2023-02-28T14:06:46;15.63;;;10.07;;
1779;SDS011;10019;46.670;14.260;2023-02-28T14:09:19;14.70;;;9.33;;
1779;SDS011;10019;46.670;14.260;2023-02-28T14:11:54;16.73;;;8.93;;
1779;SDS011;10019;46.670;14.260;2023-02-28T14:17:28;30.37;;;14.00;;
1779;SDS011;10019;46.670;14.260;2023-02-28T14:19:59;19.47;;;11.50;;
1779;SDS011;10019;46.670;14.260;2023-02-28T14:22:45;19.63;;;10.40;;
1779;SDS011;10019;46.670;14.260;2023-02-28T14:25:23;15.57;;;8.20;;
1779;SDS011;10019;46.670;14.260;2023-02-28T14:28:08;13.53;;;8.73;;
1779;SDS011;10019;46.670;14.260;2023-02-28T14:30:59;13.90;;;9.27;;
1779;SDS011;10019;46.670;14.260;2023-02-28T14:33:35;13.27;;;9.67;;
1779;SDS011;10019;46.670;14.260;2023-02-28T14:36:17;18.50;;;10.23;;
1779;SDS011;10019;46.670;14.260;2023-02-28T14:38:52;12.03;;;8.60;;
1779;SDS011;10019;46.670;14.260;2023-02-28T14:41:29;23.50;;;13.00;;
1779;SDS011;10019;46.670;14.260;2023-02-28T14:44:02;16.10;;;9.90;;
1779;SDS011;10019;46.670;14.260;2023-02-28T14:46:45;14.50;;;9.17;;
1779;SDS011;10019;46.670;14.260;2023-02-28T14:49:18;15.60;;;8.37;;
1779;SDS011;10019;46.670;14.260;2023-02-28T14:52:01;23.17;;;13.20;;
1779;SDS011;10019;46.670;14.260;2023-02-28T14:54:34;18.03;;;10.03;;
1779;SDS011;10019;46.670;14.260;2023-02-28T14:57:06;13.10;;;8.03;;
1779;SDS011;10019;46.670;14.260;2023-02-28T14:59:59;13.77;;;8.47;;
1779;SDS011;10019;46.670;14.260;2023-02-28T15:02:35;13.70;;;8.80;;
1779;SDS011;10019;46.670;14.260;2023-02-28T15:08:03;12.23;;;8.13;;
1779;SDS011;10019;46.670;14.260;2023-02-28T15:10:36;10.60;;;8.03;;
1779;SDS011;10019;46.670;14.260;2023-02-28T15:13:11;15.27;;;9.07;;
1779;SDS011;10019;46.670;14.260;2023-02-28T15:15:45;13.43;;;8.03;;
1779;SDS011;10019;46.670;14.260;2023-02-28T15:18:26;12.10;;;9.57;;
1779;SDS011;10019;46.670;14.260;2023-02-28T15:21:02;16.67;;;9.10;;
1779;SDS011;10019;46.670;14.260;2023-02-28T15:23:35;14.20;;;8.60;;
1779;SDS011;10019;46.670;14.260;2023-02-28T15:26:09;15.23;;;9.50;;
1779;SDS011;10019;46.670;14.260;2023-02-28T15:28:42;16.37;;;9.80;;
1779;SDS011;10019;46.670;14.260;2023-02-28T15:31:19;13.03;;;8.60;;
1779;SDS011;10019;46.670;14.260;2023-02-28T15:33:56;13.53;;;8.47;;
1779;SDS011;10019;46.670;14.260;2023-02-28T15:36:29;11.37;;;8.43;;
1779;SDS011;10019;46.670;14.260;2023-02-28T15:39:16;13.80;;;8.27;;
1779;SDS011;10019;46.670;14.260;2023-02-28T15:41:50;11.03;;;7.53;;
1779;SDS011;10019;46.670;14.260;2023-02-28T15:44:25;14.30;;;8.50;;
1779;SDS011;10019;46.670;14.260;2023-02-28T15:47:00;12.93;;;8.77;;
1779;SDS011;10019;46.670;14.260;2023-02-28T15:49:37;14.33;;;8.93;;